Time;durP1;ratioP1;P1;durP2;ratioP2;P2;SDS_P1;SDS_P2;PMS_P1;PMS_P2;Temp;Humidity;BMP_temperature;BMP_pressure;BME280_temperature;BME280_humidity;BME280_pressure;Samples;Min_cycle;Max_cycle;Signal;HPM_P1;HPM_P2
2023/04/07 00:00:59;;;;;;;;;;;;;;;;;;4903066;29;19981;-93
2023/04/07 00:03:26;;;;;;;;;;;;;;;;;;4919820;29;19926;-93
2023/04/07 00:05:52;;;;;;;;;;;;;;;;;;4903764;29;20017;-92
2023/04/07 00:08:18;;;;;;;;;;;;;;;;;;4903708;29;20026;-93
2023/04/07 00:10:44;;;;;;;;;;;;;;;;;;4903746;29;19927;-94
2023/04/07 00:13:10;;;;;;;;;;;;;;;;;;4903943;29;19927;-93
2023/04/07 00:15:36;;;;;;;;;;;;;;;;;;4904275;29;20363;-93
2023/04/07 00:18:05;;;;;;;;;;;;;;;;;;4904176;29;20033;-92
2023/04/07 00:20:31;;;;;;;;;;;;;;;;;;4904051;29;19931;-93
2023/04/07 00:22:57;;;;;;;;;;;;;;;;;;4903767;29;19974;-93
2023/04/07 00:25:23;;;;;;;;;;;;;;;;;;4903644;29;19923;-93
2023/04/07 00:27:49;;;;;;;;;;;;;;;;;;4903931;29;19923;-93
2023/04/07 00:30:15;;;;;;;;;;;;;;;;;;4903584;29;20021;-92
2023/04/07 00:32:44;;;;;;;;;;;;;;;;;;4904342;29;19930;-93
2023/04/07 00:35:10;;;;;;;;;;;;;;;;;;4903661;29;19923;-93
2023/04/07 00:37:36;;;;;;;;;;;;;;;;;;4903604;29;20271;-95
2023/04/07 00:40:02;;;;;;;;;;;;;;;;;;4903399;29;19923;-92
2023/04/07 00:42:29;;;;;;;;;;;;;;;;;;4918691;29;19933;-92
2023/04/07 00:44:55;;;;;;;;;;;;;;;;;;4903749;29;20385;-92
2023/04/07 00:47:20;;;;;;;;;;;;;;;;;;4903682;29;20013;-93
2023/04/07 00:49:46;;;;;;;;;;;;;;;;;;4919304;29;20026;-92
2023/04/07 00:52:12;;;;;;;;;;;;;;;;;;4903706;29;19926;-93
2023/04/07 00:54:38;;;;;;;;;;;;;;;;;;4903612;29;19930;-93
2023/04/07 00:57:04;;;;;;;;;;;;;;;;;;4903522;29;19923;-93
2023/04/07 00:59:31;;;;;;;;;;;;;;;;;;4903577;29;19982;-93
2023/04/07 01:01:57;;;;;;;;;;;;;;;;;;4903682;29;19923;-93
2023/04/07 01:04:23;;;;;;;;;;;;;;;;;;4905626;29;20343;-93
2023/04/07 01:06:52;;;;;;;;;;;;;;;;;;4907804;29;20260;-93
2023/04/07 01:09:18;;;;;;;;;;;;;;;;;;4906927;29;19934;-93
2023/04/07 01:11:44;;;;;;;;;;;;;;;;;;4907059;29;19923;-92
2023/04/07 01:14:10;;;;;;;;;;;;;;;;;;4907678;29;20256;-92
2023/04/07 01:16:36;;;;;;;;;;;;;;;;;;4907223;29;19930;-96
2023/04/07 01:19:02;;;;;;;;;;;;;;;;;;4907286;29;20383;-93
2023/04/07 01:21:28;;;;;;;;;;;;;;;;;;4906206;29;20017;-92
2023/04/07 01:23:53;;;;;;;;;;;;;;;;;;4906770;29;19975;-92
2023/04/07 01:26:20;;;;;;;;;;;;;;;;;;4906710;29;19929;-93
2023/04/07 01:28:46;;;;;;;;;;;;;;;;;;4906960;29;19933;-92
2023/04/07 01:31:12;;;;;;;;;;;;;;;;;;4907621;29;20322;-93
2023/04/07 01:33:38;;;;;;;;;;;;;;;;;;4906972;29;20102;-92
2023/04/07 01:36:04;;;;;;;;;;;;;;;;;;4906723;29;19974;-93
2023/04/07 01:38:30;;;;;;;;;;;;;;;;;;4906623;29;19923;-92
2023/04/07 01:40:56;;;;;;;;;;;;;;;;;;4906365;29;20441;-93
2023/04/07 01:43:22;;;;;;;;;;;;;;;;;;4906479;29;20286;-92
2023/04/07 01:45:48;;;;;;;;;;;;;;;;;;4906446;29;19922;-91
2023/04/07 01:48:14;;;;;;;;;;;;;;;;;;4906082;29;20284;-91
2023/04/07 01:50:40;;;;;;;;;;;;;;;;;;4906026;29;19962;-91
2023/04/07 01:53:06;;;;;;;;;;;;;;;;;;4906016;29;19995;-93
2023/04/07 01:55:32;;;;;;;;;;;;;;;;;;4905854;29;19956;-91
2023/04/07 01:57:58;;;;;;;;;;;;;;;;;;4905980;29;19927;-91
2023/04/07 02:00:24;;;;;;;;;;;;;;;;;;4905389;29;19981;-92
2023/04/07 02:02:50;;;;;;;;;;;;;;;;;;4905969;29;19923;-91
2023/04/07 02:05:16;;;;;;;;;;;;;;;;;;4906004;29;19923;-92
2023/04/07 02:07:41;;;;;;;;;;;;;;;;;;4906125;29;20005;-90
2023/04/07 02:10:07;;;;;;;;;;;;;;;;;;4905497;29;19928;-92
2023/04/07 02:12:33;;;;;;;;;;;;;;;;;;4905851;29;19930;-92
2023/04/07 02:15:00;;;;;;;;;;;;;;;;;;4920691;29;20286;-91
2023/04/07 02:17:26;;;;;;;;;;;;;;;;;;4905390;29;20020;-91
2023/04/07 02:19:52;;;;;;;;;;;;;;;;;;4905962;29;20468;-91
2023/04/07 02:22:18;;;;;;;;;;;;;;;;;;4921382;29;19922;-90
2023/04/07 02:24:44;;;;;;;;;;;;;;;;;;4905717;29;20315;-91
2023/04/07 02:27:10;;;;;;;;;;;;;;;;;;4905468;29;20367;-92
2023/04/07 02:29:36;;;;;;;;;;;;;;;;;;4905481;29;19927;-91
2023/04/07 02:32:02;;;;;;;;;;;;;;;;;;4905507;29;20485;-92
2023/04/07 02:34:28;;;;;;;;;;;;;;;;;;4921080;29;19926;-92
2023/04/07 02:36:54;;;;;;;;;;;;;;;;;;4905385;29;19923;-92
2023/04/07 02:39:20;;;;;;;;;;;;;;;;;;4904555;29;19933;-91
2023/04/07 02:41:46;;;;;;;;;;;;;;;;;;4921063;29;19934;-91
2023/04/07 02:44:12;;;;;;;;;;;;;;;;;;4905388;29;19946;-92
2023/04/07 02:46:38;;;;;;;;;;;;;;;;;;4905295;29;19923;-92
2023/04/07 02:49:04;;;;;;;;;;;;;;;;;;4904871;29;19934;-91
2023/04/07 02:51:30;;;;;;;;;;;;;;;;;;4905478;29;20410;-93
2023/04/07 02:53:56;;;;;;;;;;;;;;;;;;4905132;29;19922;-92
2023/04/07 02:56:22;;;;;;;;;;;;;;;;;;4905276;29;19970;-91
2023/04/07 02:58:48;;;;;;;;;;;;;;;;;;4920956;29;19929;-92
2023/04/07 03:01:14;;;;;;;;;;;;;;;;;;4904709;29;20006;-91
2023/04/07 03:03:41;;;;;;;;;;;;;;;;;;4904931;29;19986;-92
2023/04/07 03:06:07;;;;;;;;;;;;;;;;;;4904759;29;19929;-91
2023/04/07 03:08:33;;;;;;;;;;;;;;;;;;4904600;29;19927;-92
2023/04/07 03:10:59;;;;;;;;;;;;;;;;;;4920533;29;19923;-91
2023/04/07 03:13:25;;;;;;;;;;;;;;;;;;4904742;29;19927;-92
2023/04/07 03:15:51;;;;;;;;;;;;;;;;;;4920283;29;20371;-92
2023/04/07 03:18:17;;;;;;;;;;;;;;;;;;4904056;29;19930;-92
2023/04/07 03:20:43;;;;;;;;;;;;;;;;;;4904597;29;19946;-92
2023/04/07 03:23:09;;;;;;;;;;;;;;;;;;4904593;29;20362;-93
2023/04/07 03:25:36;;;;;;;;;;;;;;;;;;4904480;29;19960;-92
2023/04/07 03:28:01;;;;;;;;;;;;;;;;;;4905043;29;19923;-92
2023/04/07 03:30:27;;;;;;;;;;;;;;;;;;4904486;29;19942;-91
2023/04/07 03:32:53;;;;;;;;;;;;;;;;;;4904450;29;20275;-92
2023/04/07 03:35:19;;;;;;;;;;;;;;;;;;4904339;29;20374;-93
2023/04/07 03:37:45;;;;;;;;;;;;;;;;;;4904575;29;19945;-92
2023/04/07 03:40:11;;;;;;;;;;;;;;;;;;4904545;29;20363;-92
2023/04/07 03:42:37;;;;;;;;;;;;;;;;;;4904362;29;19927;-92
2023/04/07 03:45:03;;;;;;;;;;;;;;;;;;4904403;29;19931;-93
2023/04/07 03:47:29;;;;;;;;;;;;;;;;;;4904173;29;20374;-92
2023/04/07 03:49:56;;;;;;;;;;;;;;;;;;4904099;29;19934;-92
2023/04/07 03:52:22;;;;;;;;;;;;;;;;;;4904038;29;19930;-93
2023/04/07 03:54:48;;;;;;;;;;;;;;;;;;4904477;29;19923;-92
2023/04/07 03:57:14;;;;;;;;;;;;;;;;;;4903743;29;20203;-93
2023/04/07 03:59:40;;;;;;;;;;;;;;;;;;4904243;29;19931;-92
2023/04/07 04:02:06;;;;;;;;;;;;;;;;;;4904442;29;19922;-95
2023/04/07 04:04:32;;;;;;;;;;;;;;;;;;4904481;29;19930;-93
2023/04/07 04:06:58;;;;;;;;;;;;;;;;;;4904101;29;19927;-93
2023/04/07 04:09:24;;;;;;;;;;;;;;;;;;4920204;29;19934;-93
2023/04/07 04:11:50;;;;;;;;;;;;;;;;;;4904250;29;19936;-93
2023/04/07 04:14:16;;;;;;;;;;;;;;;;;;4904147;29;19994;-93
2023/04/07 04:16:42;;;;;;;;;;;;;;;;;;4903832;29;20306;-93
2023/04/07 04:19:08;;;;;;;;;;;;;;;;;;4904046;29;19923;-93
2023/04/07 04:21:34;;;;;;;;;;;;;;;;;;4903924;29;19948;-93
2023/04/07 04:24:02;;;;;;;;;;;;;;;;;;4903851;29;19934;-94
2023/04/07 04:26:28;;;;;;;;;;;;;;;;;;4904592;29;19926;-95
2023/04/07 04:28:54;;;;;;;;;;;;;;;;;;4904245;29;20298;-94
2023/04/07 04:31:20;;;;;;;;;;;;;;;;;;4903841;29;19927;-92
2023/04/07 04:33:46;;;;;;;;;;;;;;;;;;4903524;29;19923;-92
2023/04/07 04:36:12;;;;;;;;;;;;;;;;;;4903151;29;19923;-92
2023/04/07 04:38:38;;;;;;;;;;;;;;;;;;4904135;29;19937;-92
2023/04/07 04:41:04;;;;;;;;;;;;;;;;;;4907759;29;19922;-92
2023/04/07 04:43:30;;;;;;;;;;;;;;;;;;4907468;29;19938;-93
2023/04/07 04:45:56;;;;;;;;;;;;;;;;;;4907731;29;19970;-92
2023/04/07 04:48:22;;;;;;;;;;;;;;;;;;4907141;29;19930;-91
2023/04/07 04:50:48;;;;;;;;;;;;;;;;;;4909024;29;19930;-94
2023/04/07 04:53:14;;;;;;;;;;;;;;;;;;4908401;29;20367;-93
2023/04/07 04:55:42;;;;;;;;;;;;;;;;;;4907703;29;19927;-93
2023/04/07 04:58:08;;;;;;;;;;;;;;;;;;4907287;29;19966;-93
2023/04/07 05:00:34;;;;;;;;;;;;;;;;;;4906996;29;19930;-92
2023/04/07 05:03:02;;;;;;;;;;;;;;;;;;4906972;29;19927;-95
2023/04/07 05:05:27;;;;;;;;;;;;;;;;;;4907393;29;20284;-93
2023/04/07 05:07:53;;;;;;;;;;;;;;;;;;4908270;29;20021;-93
2023/04/07 05:10:19;;;;;;;;;;;;;;;;;;4907088;29;20017;-92
2023/04/07 05:12:45;;;;;;;;;;;;;;;;;;4907067;29;20383;-91
2023/04/07 05:15:11;;;;;;;;;;;;;;;;;;4922183;29;19930;-93
2023/04/07 05:17:37;;;;;;;;;;;;;;;;;;4906050;29;19923;-93
2023/04/07 05:20:03;;;;;;;;;;;;;;;;;;4906704;29;20002;-94
2023/04/07 05:22:29;;;;;;;;;;;;;;;;;;4906607;29;19922;-91
2023/04/07 05:24:55;;;;;;;;;;;;;;;;;;4906826;29;19923;-95
2023/04/07 05:27:23;;;;;;;;;;;;;;;;;;4922577;29;19973;-93
2023/04/07 05:29:48;;;;;;;;;;;;;;;;;;4906728;29;19927;-94
2023/04/07 05:32:14;;;;;;;;;;;;;;;;;;4906821;29;19930;-94
2023/04/07 05:34:40;;;;;;;;;;;;;;;;;;4906846;29;20370;-94
2023/04/07 05:37:06;;;;;;;;;;;;;;;;;;4906650;29;19923;-94
2023/04/07 05:39:32;;;;;;;;;;;;;;;;;;4906340;29;19922;-93
2023/04/07 05:41:58;;;;;;;;;;;;;;;;;;4906366;29;20375;-91
2023/04/07 05:44:24;;;;;;;;;;;;;;;;;;4921770;29;19930;-90
2023/04/07 05:46:50;;;;;;;;;;;;;;;;;;4905890;29;19926;-92
2023/04/07 05:49:17;;;;;;;;;;;;;;;;;;4905802;29;19995;-92
2023/04/07 05:51:43;;;;;;;;;;;;;;;;;;4920788;29;19951;-90
2023/04/07 05:54:09;;;;;;;;;;;;;;;;;;4906065;29;19923;-92
2023/04/07 05:56:36;;;;;;;;;;;;;;;;;;4921373;29;20363;-91
2023/04/07 05:59:02;;;;;;;;;;;;;;;;;;4905909;29;19947;-93
2023/04/07 06:01:27;;;;;;;;;;;;;;;;;;4905984;29;19946;-91
2023/04/07 06:03:56;;;;;;;;;;;;;;;;;;4906167;29;20379;-93
2023/04/07 06:06:22;;;;;;;;;;;;;;;;;;4905817;29;19970;-93
2023/04/07 06:08:48;;;;;;;;;;;;;;;;;;4906302;29;20005;-93
2023/04/07 06:11:14;;;;;;;;;;;;;;;;;;4905626;29;19922;-92
2023/04/07 06:13:40;;;;;;;;;;;;;;;;;;4905592;29;19926;-91
2023/04/07 06:16:06;;;;;;;;;;;;;;;;;;4905296;29;20018;-93
2023/04/07 06:18:32;;;;;;;;;;;;;;;;;;4887249;29;19971;-93
2023/04/07 06:20:58;;;;;;;;;;;;;;;;;;4887087;29;19923;-92
2023/04/07 06:23:24;;;;;;;;;;;;;;;;;;4887216;29;19946;-93
2023/04/07 06:25:52;;;;;;;;;;;;;;;;;;4900280;29;20017;-92
2023/04/07 06:28:18;;;;;;;;;;;;;;;;;;4905019;29;20367;-93
2023/04/07 06:30:43;;;;;;;;;;;;;;;;;;4905350;29;19951;-91
2023/04/07 06:33:09;;;;;;;;;;;;;;;;;;4905244;29;19926;-92
2023/04/07 06:35:38;;;;;;;;;;;;;;;;;;4921384;29;19929;-92
2023/04/07 06:38:05;;;;;;;;;;;;;;;;;;4904013;29;19923;-91
2023/04/07 06:40:31;;;;;;;;;;;;;;;;;;4905366;29;19972;-92
2023/04/07 06:42:58;;;;;;;;;;;;;;;;;;4904911;29;19931;-92
2023/04/07 06:45:24;;;;;;;;;;;;;;;;;;4906132;29;19930;-91
2023/04/07 06:47:50;;;;;;;;;;;;;;;;;;4905164;29;19923;-93
2023/04/07 06:50:19;;;;;;;;;;;;;;;;;;4905054;29;19926;-95
2023/04/07 06:52:46;;;;;;;;;;;;;;;;;;4921331;29;19923;-94
2023/04/07 06:55:13;;;;;;;;;;;;;;;;;;4905251;29;19974;-93
2023/04/07 06:57:40;;;;;;;;;;;;;;;;;;4905048;29;19929;-92
2023/04/07 07:00:06;;;;;;;;;;;;;;;;;;4905113;29;19938;-92
2023/04/07 07:02:33;;;;;;;;;;;;;;;;;;4904922;29;19938;-92
2023/04/07 07:04:59;;;;;;;;;;;;;;;;;;4905049;29;19929;-93
2023/04/07 07:07:25;;;;;;;;;;;;;;;;;;4905319;29;20362;-93
2023/04/07 07:09:51;;;;;;;;;;;;;;;;;;4903719;29;20382;-93
2023/04/07 07:12:17;;;;;;;;;;;;;;;;;;4904746;29;19930;-93
2023/04/07 07:14:46;;;;;;;;;;;;;;;;;;4905814;29;20399;-93
2023/04/07 07:17:13;;;;;;;;;;;;;;;;;;4905099;29;20034;-93
2023/04/07 07:19:39;;;;;;;;;;;;;;;;;;4920099;29;19934;-93
2023/04/07 07:22:08;;;;;;;;;;;;;;;;;;4904725;29;19936;-93
2023/04/07 07:24:35;;;;;;;;;;;;;;;;;;4904910;29;20010;-93
2023/04/07 07:27:02;;;;;;;;;;;;;;;;;;4904792;29;20013;-93
2023/04/07 07:29:28;;;;;;;;;;;;;;;;;;4904766;29;19934;-93
2023/04/07 07:31:54;;;;;;;;;;;;;;;;;;4907056;29;19923;-93
2023/04/07 07:34:23;;;;;;;;;;;;;;;;;;4903983;29;20014;-92
2023/04/07 07:36:53;;;;;;;;;;;;;;;;;;4904593;29;19962;-94
2023/04/07 07:39:19;;;;;;;;;;;;;;;;;;4904349;29;19934;-92
2023/04/07 07:41:45;;;;;;;;;;;;;;;;;;4919844;29;19927;-92
2023/04/07 07:44:14;;;;;;;;;;;;;;;;;;4920873;29;19945;-91
2023/04/07 07:46:40;;;;;;;;;;;;;;;;;;4904171;29;20382;-92
2023/04/07 07:49:06;;;;;;;;;;;;;;;;;;4904395;29;19933;-95
2023/04/07 07:51:33;;;;;;;;;;;;;;;;;;4919951;29;19923;-93
2023/04/07 07:53:59;;;;;;;;;;;;;;;;;;4903822;29;19923;-93
2023/04/07 07:56:27;;;;;;;;;;;;;;;;;;4920408;29;20393;-93
2023/04/07 07:58:53;;;;;;;;;;;;;;;;;;4919092;29;19948;-93
2023/04/07 08:01:20;;;;;;;;;;;;;;;;;;4905047;29;19954;-95
2023/04/07 08:03:46;;;;;;;;;;;;;;;;;;4904316;29;19923;-95
2023/04/07 08:06:12;;;;;;;;;;;;;;;;;;4903942;29;20022;-94
2023/04/07 08:08:38;;;;;;;;;;;;;;;;;;4904136;29;19926;-94
2023/04/07 08:11:04;;;;;;;;;;;;;;;;;;4904528;29;20382;-94
2023/04/07 08:13:30;;;;;;;;;;;;;;;;;;4903607;29;19923;-93
2023/04/07 08:15:56;;;;;;;;;;;;;;;;;;4904401;29;20036;-93
2023/04/07 08:18:24;;;;;;;;;;;;;;;;;;4903103;29;19923;-95
2023/04/07 08:20:50;;;;;;;;;;;;;;;;;;4903841;29;19930;-95
2023/04/07 08:23:16;;;;;;;;;;;;;;;;;;4904388;29;19934;-95
2023/04/07 08:25:42;;;;;;;;;;;;;;;;;;4904506;29;19923;-93
2023/04/07 08:28:08;;;;;;;;;;;;;;;;;;4904241;29;20142;-96
2023/04/07 08:36:45;;;;;;;;;;;;;;;;;;5524864;23;19927;-95
2023/04/07 08:39:11;;;;;;;;;;;;;;;;;;4904508;29;19922;-95
2023/04/07 08:41:37;;;;;;;;;;;;;;;;;;4923015;29;19929;-95
2023/04/07 08:44:03;;;;;;;;;;;;;;;;;;4922367;29;19922;-94
2023/04/07 08:46:29;;;;;;;;;;;;;;;;;;4906225;29;19938;-93
2023/04/07 08:48:57;;;;;;;;;;;;;;;;;;4918904;29;19934;-92
2023/04/07 08:51:23;;;;;;;;;;;;;;;;;;4903482;29;19923;-93
2023/04/07 08:53:49;;;;;;;;;;;;;;;;;;4902971;29;19986;-93
2023/04/07 08:56:15;;;;;;;;;;;;;;;;;;4903087;29;19930;-94
2023/04/07 08:58:41;;;;;;;;;;;;;;;;;;4903159;29;19923;-92
2023/04/07 09:01:07;;;;;;;;;;;;;;;;;;4918416;29;19923;-93
2023/04/07 09:03:34;;;;;;;;;;;;;;;;;;4918587;29;20275;-93
2023/04/07 09:06:00;;;;;;;;;;;;;;;;;;4902776;29;19923;-93
2023/04/07 09:08:26;;;;;;;;;;;;;;;;;;4919271;29;19923;-94
2023/04/07 09:10:55;;;;;;;;;;;;;;;;;;4903481;29;19933;-94
2023/04/07 09:13:21;;;;;;;;;;;;;;;;;;4903271;29;19922;-94
2023/04/07 09:15:48;;;;;;;;;;;;;;;;;;4919481;29;19930;-95
2023/04/07 09:18:15;;;;;;;;;;;;;;;;;;4903927;29;20017;-95
2023/04/07 09:20:41;;;;;;;;;;;;;;;;;;4902992;29;19923;-95
2023/04/07 09:23:10;;;;;;;;;;;;;;;;;;4904091;29;19934;-95
2023/04/07 09:25:36;;;;;;;;;;;;;;;;;;4906039;29;20054;-94
2023/04/07 09:28:02;;;;;;;;;;;;;;;;;;4906554;29;20363;-94
2023/04/07 09:30:28;;;;;;;;;;;;;;;;;;4908211;29;19927;-95
2023/04/07 09:32:54;;;;;;;;;;;;;;;;;;4906325;29;20097;-94
2023/04/07 09:35:22;;;;;;;;;;;;;;;;;;4906364;29;19993;-93
2023/04/07 09:37:48;;;;;;;;;;;;;;;;;;4906337;29;19981;-94
2023/04/07 09:40:14;;;;;;;;;;;;;;;;;;4906411;29;19923;-93
2023/04/07 09:42:42;;;;;;;;;;;;;;;;;;4906827;29;19922;-94
2023/04/07 09:45:08;;;;;;;;;;;;;;;;;;4905963;29;19927;-93
2023/04/07 09:47:34;;;;;;;;;;;;;;;;;;4906105;29;19922;-93
2023/04/07 09:50:05;;;;;;;;;;;;;;;;;;4921370;29;20021;-95
2023/04/07 09:52:31;;;;;;;;;;;;;;;;;;4906027;29;19922;-92
2023/04/07 09:54:57;;;;;;;;;;;;;;;;;;4906868;29;20009;-95
2023/04/07 09:57:26;;;;;;;;;;;;;;;;;;4906953;29;19915;-94
2023/04/07 09:59:54;;;;;;;;;;;;;;;;;;4908638;29;20268;-94
2023/04/07 10:02:21;;;;;;;;;;;;;;;;;;4908021;29;20014;-94
2023/04/07 10:04:47;;;;;;;;;;;;;;;;;;4908139;29;20022;-96
2023/04/07 10:07:13;;;;;;;;;;;;;;;;;;4907193;29;20364;-96
2023/04/07 10:09:48;;;;;;;;;;;;;;;;;;4923414;29;19927;-96
2023/04/07 10:12:18;;;;;;;;;;;;;;;;;;4940710;29;20005;-95
2023/04/07 10:14:45;;;;;;;;;;;;;;;;;;4911826;29;19969;-96
2023/04/07 10:17:13;;;;;;;;;;;;;;;;;;4907082;29;19922;-90
2023/04/07 10:19:39;;;;;;;;;;;;;;;;;;4905567;29;20025;-89
2023/04/07 10:22:05;;;;;;;;;;;;;;;;;;4905475;29;19927;-91
2023/04/07 10:24:34;;;;;;;;;;;;;;;;;;4920720;29;21238;-90
2023/04/07 10:27:01;;;;;;;;;;;;;;;;;;4905587;29;19931;-90
2023/04/07 10:29:28;;;;;;;;;;;;;;;;;;4906414;29;20022;-93
2023/04/07 10:31:54;;;;;;;;;;;;;;;;;;4905162;29;19923;-92
2023/04/07 10:34:21;;;;;;;;;;;;;;;;;;4905752;29;19927;-92
2023/04/07 10:36:47;;;;;;;;;;;;;;;;;;4920209;29;19927;-91
2023/04/07 10:39:13;;;;;;;;;;;;;;;;;;4905815;29;19973;-91
2023/04/07 10:41:40;;;;;;;;;;;;;;;;;;4921354;29;19989;-91
2023/04/07 10:44:06;;;;;;;;;;;;;;;;;;4905154;29;19933;-93
2023/04/07 10:46:32;;;;;;;;;;;;;;;;;;4905473;29;19922;-92
2023/04/07 10:48:58;;;;;;;;;;;;;;;;;;4905506;29;20025;-91
2023/04/07 10:51:24;;;;;;;;;;;;;;;;;;4904395;29;19929;-91
2023/04/07 10:53:50;;;;;;;;;;;;;;;;;;4905595;29;19922;-92
2023/04/07 10:56:16;;;;;;;;;;;;;;;;;;4905288;29;19962;-91
2023/04/07 10:58:42;;;;;;;;;;;;;;;;;;4905174;29;19922;-92
2023/04/07 11:01:08;;;;;;;;;;;;;;;;;;4904868;29;19925;-91
2023/04/07 11:03:36;;;;;;;;;;;;;;;;;;4920356;29;19978;-92
2023/04/07 11:06:02;;;;;;;;;;;;;;;;;;4904442;29;19923;-92
2023/04/07 11:08:28;;;;;;;;;;;;;;;;;;4920039;29;20250;-92
2023/04/07 11:10:54;;;;;;;;;;;;;;;;;;4905669;29;20009;-92
2023/04/07 11:13:21;;;;;;;;;;;;;;;;;;4905165;29;19927;-92
2023/04/07 11:15:47;;;;;;;;;;;;;;;;;;4904432;29;20395;-91
2023/04/07 11:18:16;;;;;;;;;;;;;;;;;;4905237;29;19930;-92
2023/04/07 11:20:43;;;;;;;;;;;;;;;;;;4920328;29;19930;-92
2023/04/07 11:23:09;;;;;;;;;;;;;;;;;;4920753;29;19927;-93
2023/04/07 11:25:35;;;;;;;;;;;;;;;;;;4904688;29;19922;-91
2023/04/07 11:28:02;;;;;;;;;;;;;;;;;;4904815;29;19922;-91
2023/04/07 11:30:28;;;;;;;;;;;;;;;;;;4904558;29;20355;-91
2023/04/07 11:32:56;;;;;;;;;;;;;;;;;;4904192;29;19923;-94
2023/04/07 11:35:26;;;;;;;;;;;;;;;;;;4904466;29;19986;-92
2023/04/07 11:37:52;;;;;;;;;;;;;;;;;;4920252;29;20351;-93
2023/04/07 11:40:18;;;;;;;;;;;;;;;;;;4904167;29;19922;-92
2023/04/07 11:42:47;;;;;;;;;;;;;;;;;;4920036;29;19969;-96
2023/04/07 11:45:13;;;;;;;;;;;;;;;;;;4904042;29;19923;-90
2023/04/07 11:47:39;;;;;;;;;;;;;;;;;;4903972;29;19941;-90
2023/04/07 11:50:08;;;;;;;;;;;;;;;;;;4904344;29;19978;-91
2023/04/07 11:52:36;;;;;;;;;;;;;;;;;;4904885;29;19929;-93
2023/04/07 11:55:01;;;;;;;;;;;;;;;;;;4904190;29;20363;-93
2023/04/07 11:57:27;;;;;;;;;;;;;;;;;;4904513;29;19922;-93
2023/04/07 11:59:53;;;;;;;;;;;;;;;;;;4904712;29;19926;-95
2023/04/07 12:02:19;;;;;;;;;;;;;;;;;;4903824;29;19923;-92
2023/04/07 12:04:45;;;;;;;;;;;;;;;;;;4903798;29;19934;-90
2023/04/07 12:07:11;;;;;;;;;;;;;;;;;;4903870;29;20013;-90
2023/04/07 12:09:37;;;;;;;;;;;;;;;;;;4903368;29;19979;-90
2023/04/07 12:12:05;;;;;;;;;;;;;;;;;;4903042;29;20005;-90
2023/04/07 12:14:32;;;;;;;;;;;;;;;;;;4902989;29;20401;-90
2023/04/07 12:16:58;;;;;;;;;;;;;;;;;;4902402;29;20017;-92
2023/04/07 12:19:24;;;;;;;;;;;;;;;;;;4903549;29;20286;-90
2023/04/07 12:21:53;;;;;;;;;;;;;;;;;;4903394;29;19923;-89
2023/04/07 12:24:20;;;;;;;;;;;;;;;;;;4918807;29;19923;-90
2023/04/07 12:26:46;;;;;;;;;;;;;;;;;;4903100;29;19934;-92
2023/04/07 12:29:13;;;;;;;;;;;;;;;;;;4916570;29;19927;-91
2023/04/07 12:31:39;;;;;;;;;;;;;;;;;;4900558;29;19945;-89
2023/04/07 12:34:05;;;;;;;;;;;;;;;;;;4900335;29;19974;-90
2023/04/07 12:36:32;;;;;;;;;;;;;;;;;;4901198;29;19986;-92
2023/04/07 12:39:00;;;;;;;;;;;;;;;;;;4919376;29;19922;-93
2023/04/07 12:41:37;;;;;;;;;;;;;;;;;;4919278;29;19951;-91
2023/04/07 12:44:03;;;;;;;;;;;;;;;;;;4903032;29;20021;-91
2023/04/07 12:46:29;;;;;;;;;;;;;;;;;;4903156;29;19970;-92
2023/04/07 12:48:55;;;;;;;;;;;;;;;;;;4903288;29;19927;-88
2023/04/07 12:51:21;;;;;;;;;;;;;;;;;;4903068;29;19927;-89
2023/04/07 12:53:57;;;;;;;;;;;;;;;;;;4903684;29;19930;-92
2023/04/07 12:56:23;;;;;;;;;;;;;;;;;;4904235;29;19946;-92
2023/04/07 12:58:49;;;;;;;;;;;;;;;;;;4904397;29;20354;-92
2023/04/07 13:01:15;;;;;;;;;;;;;;;;;;4907419;29;20359;-93
2023/04/07 13:03:41;;;;;;;;;;;;;;;;;;4906944;29;19973;-93
2023/04/07 13:06:09;;;;;;;;;;;;;;;;;;4907035;29;19922;-93
2023/04/07 13:08:35;;;;;;;;;;;;;;;;;;4907345;29;19923;-94
2023/04/07 13:11:01;;;;;;;;;;;;;;;;;;4907839;29;20389;-93
2023/04/07 13:13:27;;;;;;;;;;;;;;;;;;4907034;29;19923;-94
2023/04/07 13:15:53;;;;;;;;;;;;;;;;;;4907275;29;19927;-93
2023/04/07 13:18:20;;;;;;;;;;;;;;;;;;4907190;29;19974;-93
2023/04/07 13:20:46;;;;;;;;;;;;;;;;;;4906835;29;20080;-92
2023/04/07 13:23:15;;;;;;;;;;;;;;;;;;4907159;29;19927;-96
2023/04/07 13:25:41;;;;;;;;;;;;;;;;;;4907303;29;20346;-95
2023/04/07 13:28:07;;;;;;;;;;;;;;;;;;4907529;29;19922;-92
2023/04/07 13:30:33;;;;;;;;;;;;;;;;;;4906983;29;19974;-91
2023/04/07 13:32:59;;;;;;;;;;;;;;;;;;4906097;29;19927;-93
2023/04/07 13:35:25;;;;;;;;;;;;;;;;;;4907072;29;19930;-92
2023/04/07 13:37:54;;;;;;;;;;;;;;;;;;4906030;29;19935;-93
2023/04/07 13:40:20;;;;;;;;;;;;;;;;;;4906312;29;19974;-92
2023/04/07 13:42:46;;;;;;;;;;;;;;;;;;4905901;29;20279;-91
2023/04/07 13:45:12;;;;;;;;;;;;;;;;;;4906411;29;19923;-91
2023/04/07 13:47:38;;;;;;;;;;;;;;;;;;4906794;29;19933;-92
2023/04/07 13:50:05;;;;;;;;;;;;;;;;;;4918534;29;19951;-91
2023/04/07 14:00:47;;;;;;;;;;;;;;;;;;5629579;23;19931;-92
2023/04/07 14:03:13;;;;;;;;;;;;;;;;;;4905218;29;19923;-92
2023/04/07 14:05:39;;;;;;;;;;;;;;;;;;4899424;29;19923;-92
2023/04/07 14:08:05;;;;;;;;;;;;;;;;;;4887063;29;19930;-92
2023/04/07 14:10:32;;;;;;;;;;;;;;;;;;4887115;29;20324;-93
2023/04/07 15:53:50;;;;;;;;;;;;;;;;;;4915908;29;19935;-92
2023/04/07 15:56:17;;;;;;;;;;;;;;;;;;4916104;29;19981;-92
2023/04/07 16:02:15;;;;;;;;;;;;;;;;;;4930226;29;19922;-93
2023/04/07 16:04:46;;;;;;;;;;;;;;;;;;4905264;29;19922;-94
2023/04/07 16:13:25;;;;;;;;;;;;;;;;;;4937957;29;19970;-94
2023/04/07 16:15:54;;;;;;;;;;;;;;;;;;4920292;29;19923;-95
2023/04/07 16:18:26;;;;;;;;;;;;;;;;;;4906181;29;20355;-96
2023/04/07 16:20:52;;;;;;;;;;;;;;;;;;4906174;29;19923;-95
2023/04/07 16:23:20;;;;;;;;;;;;;;;;;;4908233;29;19965;-95
2023/04/07 16:25:49;;;;;;;;;;;;;;;;;;4903351;29;19922;-95
2023/04/07 16:28:15;;;;;;;;;;;;;;;;;;4903831;29;19930;-93
2023/04/07 16:30:41;;;;;;;;;;;;;;;;;;4907736;29;19927;-96
2023/04/07 16:33:12;;;;;;;;;;;;;;;;;;4904785;29;20461;-96
2023/04/07 16:35:48;;;;;;;;;;;;;;;;;;;;;
2023/04/07 16:38:18;;;;;;;;;;;;;;;;;;4943322;29;19982;-96
2023/04/07 16:40:44;;;;;;;;;;;;;;;;;;4908387;29;19923;-96
2023/04/07 16:43:10;;;;;;;;;;;;;;;;;;4908040;29;19974;-96
2023/04/07 16:45:40;;;;;;;;;;;;;;;;;;4910248;29;19977;-96
2023/04/07 17:19:44;;;;;;;;;;;;;;;;;;5917872;23;20270;-94
2023/04/07 17:25:31;;;;;;;;;;;;;;;;;;;;;
2023/04/07 17:31:20;;;;;;;;;;;;;;;;;;4831184;29;19928;-95
2023/04/07 17:45:48;;;;;;;;;;;;;;;;;;5229516;23;19927;-94
2023/04/07 17:48:14;;;;;;;;;;;;;;;;;;4892694;29;20331;-93
2023/04/07 18:06:46;;;;;;;;;;;;;;;;;;5945836;23;20920;-93
2023/04/07 18:27:27;;;;;;;;;;;;;;;;;;5970666;23;20805;-95
2023/04/07 18:30:02;;;;;;;;;;;;;;;;;;4890701;29;19973;-96
2023/04/07 18:32:28;;;;;;;;;;;;;;;;;;4903231;29;19923;-93
2023/04/07 18:37:30;;;;;;;;;;;;;;;;;;6028819;23;19921;-93
2023/04/07 18:39:56;;;;;;;;;;;;;;;;;;4904748;29;19927;-95
2023/04/07 18:42:22;;;;;;;;;;;;;;;;;;4907441;29;19970;-95
2023/04/07 18:44:48;;;;;;;;;;;;;;;;;;4906526;29;19942;-96
2023/04/07 18:47:14;;;;;;;;;;;;;;;;;;4888658;29;20464;-96
2023/04/07 20:01:03;;;;;;;;;;;;;;;;;;5136649;23;19927;-95
2023/04/07 20:03:29;;;;;;;;;;;;;;;;;;4903446;29;20358;-94
2023/04/07 20:11:29;;;;;;;;;;;;;;;;;;4916100;29;20298;-92
2023/04/07 20:13:55;;;;;;;;;;;;;;;;;;4902878;29;19951;-93
2023/04/07 20:16:21;;;;;;;;;;;;;;;;;;4909967;29;19923;-93
2023/04/07 20:18:47;;;;;;;;;;;;;;;;;;4905565;29;19962;-93
2023/04/07 20:21:13;;;;;;;;;;;;;;;;;;4905734;29;19923;-94
2023/04/07 20:23:40;;;;;;;;;;;;;;;;;;4919620;29;19923;-94
2023/04/07 20:26:07;;;;;;;;;;;;;;;;;;4903419;29;19970;-95
2023/04/07 20:28:33;;;;;;;;;;;;;;;;;;4904197;29;19923;-94
2023/04/07 20:31:00;;;;;;;;;;;;;;;;;;4919764;29;19938;-94
2023/04/07 20:33:26;;;;;;;;;;;;;;;;;;4904291;29;19923;-96
2023/04/07 20:35:53;;;;;;;;;;;;;;;;;;4904367;29;19981;-95
2023/04/07 20:38:19;;;;;;;;;;;;;;;;;;4903634;29;19977;-95
2023/04/07 20:40:45;;;;;;;;;;;;;;;;;;4904062;29;20279;-95
2023/04/07 20:43:11;;;;;;;;;;;;;;;;;;4904418;29;20013;-94
2023/04/07 20:45:37;;;;;;;;;;;;;;;;;;4904583;29;19977;-95
2023/04/07 20:48:03;;;;;;;;;;;;;;;;;;4904166;29;19911;-96
2023/04/07 20:50:29;;;;;;;;;;;;;;;;;;4903862;29;20307;-94
2023/04/07 20:52:55;;;;;;;;;;;;;;;;;;4903409;29;19922;-95
2023/04/07 21:01:31;;;;;;;;;;;;;;;;;;4897132;29;19967;-94
2023/04/07 21:04:09;;;;;;;;;;;;;;;;;;4936121;29;19922;-96
2023/04/07 21:06:35;;;;;;;;;;;;;;;;;;4903800;29;19930;-95
2023/04/07 21:09:04;;;;;;;;;;;;;;;;;;4919676;29;20327;-94
2023/04/07 21:11:30;;;;;;;;;;;;;;;;;;4903566;29;20013;-93
2023/04/07 21:13:56;;;;;;;;;;;;;;;;;;4903525;29;19989;-93
2023/04/07 21:16:22;;;;;;;;;;;;;;;;;;4919464;29;19923;-95
2023/04/07 21:18:48;;;;;;;;;;;;;;;;;;4903204;29;19922;-94
2023/04/07 21:21:14;;;;;;;;;;;;;;;;;;4905675;29;19923;-96
2023/04/07 21:23:40;;;;;;;;;;;;;;;;;;4910220;29;19924;-96
2023/04/07 21:26:09;;;;;;;;;;;;;;;;;;4908449;29;20013;-96
2023/04/07 21:28:38;;;;;;;;;;;;;;;;;;4923352;29;20035;-96
2023/04/07 21:31:04;;;;;;;;;;;;;;;;;;4907254;29;19933;-95
2023/04/07 21:33:30;;;;;;;;;;;;;;;;;;4907680;29;19934;-95
2023/04/07 21:35:56;;;;;;;;;;;;;;;;;;4907456;29;19978;-94